sensor_id;sensor_type;location;lat;lon;timestamp;temperature;humidity
8858;DHT22;4465;50.904;4.696;2023-06-10T00:00:46;22.60;86.70
8858;DHT22;4465;50.904;4.696;2023-06-10T00:03:14;22.60;86.40
8858;DHT22;4465;50.904;4.696;2023-06-10T00:05:40;22.50;86.20
8858;DHT22;4465;50.904;4.696;2023-06-10T00:08:07;22.50;86.40
8858;DHT22;4465;50.904;4.696;2023-06-10T00:10:37;22.50;86.50
8858;DHT22;4465;50.904;4.696;2023-06-10T00:13:06;22.50;86.80
8858;DHT22;4465;50.904;4.696;2023-06-10T00:15:37;22.50;87.10
8858;DHT22;4465;50.904;4.696;2023-06-10T00:18:05;22.40;86.90
8858;DHT22;4465;50.904;4.696;2023-06-10T00:20:34;22.40;87.20
8858;DHT22;4465;50.904;4.696;2023-06-10T00:23:01;22.40;87.20
8858;DHT22;4465;50.904;4.696;2023-06-10T00:25:27;22.30;87.10
8858;DHT22;4465;50.904;4.696;2023-06-10T00:27:55;22.30;87.20
8858;DHT22;4465;50.904;4.696;2023-06-10T00:30:24;22.30;86.80
8858;DHT22;4465;50.904;4.696;2023-06-10T00:32:49;22.30;86.40
8858;DHT22;4465;50.904;4.696;2023-06-10T00:35:18;22.20;87.40
8858;DHT22;4465;50.904;4.696;2023-06-10T00:37:46;22.20;87.10
8858;DHT22;4465;50.904;4.696;2023-06-10T00:40:12;22.20;87.80
8858;DHT22;4465;50.904;4.696;2023-06-10T00:42:38;22.20;87.90
8858;DHT22;4465;50.904;4.696;2023-06-10T00:45:05;22.10;87.90
8858;DHT22;4465;50.904;4.696;2023-06-10T00:47:31;22.10;87.90
8858;DHT22;4465;50.904;4.696;2023-06-10T00:49:58;22.10;88.30
8858;DHT22;4465;50.904;4.696;2023-06-10T00:52:27;22.00;87.80
8858;DHT22;4465;50.904;4.696;2023-06-10T00:54:54;22.00;87.90
8858;DHT22;4465;50.904;4.696;2023-06-10T00:57:20;22.00;87.90
8858;DHT22;4465;50.904;4.696;2023-06-10T00:59:49;22.00;87.80
8858;DHT22;4465;50.904;4.696;2023-06-10T01:02:15;22.00;88.20
8858;DHT22;4465;50.904;4.696;2023-06-10T01:04:46;21.90;88.20
8858;DHT22;4465;50.904;4.696;2023-06-10T01:13:10;21.80;88.90
8858;DHT22;4465;50.904;4.696;2023-06-10T01:15:38;21.80;89.00
8858;DHT22;4465;50.904;4.696;2023-06-10T01:18:06;21.80;89.50
8858;DHT22;4465;50.904;4.696;2023-06-10T01:20:37;21.70;89.10
8858;DHT22;4465;50.904;4.696;2023-06-10T01:23:06;21.70;90.20
8858;DHT22;4465;50.904;4.696;2023-06-10T01:25:33;21.70;90.10
8858;DHT22;4465;50.904;4.696;2023-06-10T01:30:48;21.60;90.30
8858;DHT22;4465;50.904;4.696;2023-06-10T01:33:18;21.50;90.40
8858;DHT22;4465;50.904;4.696;2023-06-10T01:35:48;21.30;90.40
8858;DHT22;4465;50.904;4.696;2023-06-10T01:38:15;21.30;90.40
8858;DHT22;4465;50.904;4.696;2023-06-10T01:40:43;21.10;90.40
8858;DHT22;4465;50.904;4.696;2023-06-10T01:43:09;21.10;90.60
8858;DHT22;4465;50.904;4.696;2023-06-10T01:45:35;21.00;90.50
8858;DHT22;4465;50.904;4.696;2023-06-10T01:48:04;20.90;90.70
8858;DHT22;4465;50.904;4.696;2023-06-10T01:50:29;20.70;91.10
8858;DHT22;4465;50.904;4.696;2023-06-10T01:52:57;20.60;90.70
8858;DHT22;4465;50.904;4.696;2023-06-10T01:55:23;20.50;91.30
8858;DHT22;4465;50.904;4.696;2023-06-10T01:57:49;20.50;91.40
8858;DHT22;4465;50.904;4.696;2023-06-10T02:00:15;20.40;91.60
8858;DHT22;4465;50.904;4.696;2023-06-10T02:02:44;20.30;91.70
8858;DHT22;4465;50.904;4.696;2023-06-10T02:05:10;20.20;91.70
8858;DHT22;4465;50.904;4.696;2023-06-10T02:07:38;20.20;91.80
8858;DHT22;4465;50.904;4.696;2023-06-10T02:10:07;20.10;92.10
8858;DHT22;4465;50.904;4.696;2023-06-10T02:12:34;20.10;92.20
8858;DHT22;4465;50.904;4.696;2023-06-10T02:15:02;20.00;92.40
8858;DHT22;4465;50.904;4.696;2023-06-10T02:17:30;19.90;92.50
8858;DHT22;4465;50.904;4.696;2023-06-10T02:19:56;19.90;92.40
8858;DHT22;4465;50.904;4.696;2023-06-10T02:22:23;19.90;92.40
8858;DHT22;4465;50.904;4.696;2023-06-10T02:24:51;19.80;92.70
8858;DHT22;4465;50.904;4.696;2023-06-10T02:27:18;19.80;92.50
8858;DHT22;4465;50.904;4.696;2023-06-10T02:29:44;19.80;92.70
8858;DHT22;4465;50.904;4.696;2023-06-10T02:32:14;19.70;92.60
8858;DHT22;4465;50.904;4.696;2023-06-10T02:34:40;19.70;92.40
8858;DHT22;4465;50.904;4.696;2023-06-10T02:37:08;19.70;92.30
8858;DHT22;4465;50.904;4.696;2023-06-10T02:39:34;19.70;92.70
8858;DHT22;4465;50.904;4.696;2023-06-10T02:42:00;19.70;92.80
8858;DHT22;4465;50.904;4.696;2023-06-10T02:44:25;19.70;93.10
8858;DHT22;4465;50.904;4.696;2023-06-10T02:46:54;19.70;93.30
8858;DHT22;4465;50.904;4.696;2023-06-10T02:49:19;19.70;93.10
8858;DHT22;4465;50.904;4.696;2023-06-10T02:51:45;19.70;93.30
8858;DHT22;4465;50.904;4.696;2023-06-10T02:54:11;19.60;92.70
8858;DHT22;4465;50.904;4.696;2023-06-10T02:56:39;19.60;92.60
8858;DHT22;4465;50.904;4.696;2023-06-10T02:59:07;19.60;92.80
8858;DHT22;4465;50.904;4.696;2023-06-10T03:01:33;19.60;91.90
8858;DHT22;4465;50.904;4.696;2023-06-10T03:04:04;19.60;92.70
8858;DHT22;4465;50.904;4.696;2023-06-10T03:06:32;19.70;92.60
8858;DHT22;4465;50.904;4.696;2023-06-10T03:09:02;19.70;92.30
8858;DHT22;4465;50.904;4.696;2023-06-10T03:11:30;19.70;93.00
8858;DHT22;4465;50.904;4.696;2023-06-10T03:13:58;19.80;92.60
8858;DHT22;4465;50.904;4.696;2023-06-10T03:16:26;19.80;92.80
8858;DHT22;4465;50.904;4.696;2023-06-10T03:18:53;19.80;93.00
8858;DHT22;4465;50.904;4.696;2023-06-10T03:21:19;19.80;92.80
8858;DHT22;4465;50.904;4.696;2023-06-10T03:23:46;19.80;93.10
8858;DHT22;4465;50.904;4.696;2023-06-10T03:26:12;19.80;93.40
8858;DHT22;4465;50.904;4.696;2023-06-10T03:28:40;19.90;93.30
8858;DHT22;4465;50.904;4.696;2023-06-10T03:31:08;19.80;93.10
8858;DHT22;4465;50.904;4.696;2023-06-10T03:33:36;19.80;93.10
8858;DHT22;4465;50.904;4.696;2023-06-10T03:36:03;19.80;93.20
8858;DHT22;4465;50.904;4.696;2023-06-10T03:38:29;19.90;93.40
8858;DHT22;4465;50.904;4.696;2023-06-10T03:40:55;19.90;93.40
8858;DHT22;4465;50.904;4.696;2023-06-10T03:43:21;19.90;93.60
8858;DHT22;4465;50.904;4.696;2023-06-10T03:45:47;19.90;93.80
8858;DHT22;4465;50.904;4.696;2023-06-10T03:48:13;19.80;94.20
8858;DHT22;4465;50.904;4.696;2023-06-10T03:50:39;19.80;94.20
8858;DHT22;4465;50.904;4.696;2023-06-10T03:53:05;19.80;94.40
8858;DHT22;4465;50.904;4.696;2023-06-10T03:55:33;19.80;94.30
8858;DHT22;4465;50.904;4.696;2023-06-10T03:58:01;19.70;94.50
8858;DHT22;4465;50.904;4.696;2023-06-10T04:00:29;19.70;94.50
8858;DHT22;4465;50.904;4.696;2023-06-10T04:02:57;19.70;94.70
8858;DHT22;4465;50.904;4.696;2023-06-10T04:05:26;19.70;94.70
8858;DHT22;4465;50.904;4.696;2023-06-10T04:07:57;19.60;94.90
8858;DHT22;4465;50.904;4.696;2023-06-10T04:10:25;19.60;95.10
8858;DHT22;4465;50.904;4.696;2023-06-10T04:12:53;19.60;95.30
8858;DHT22;4465;50.904;4.696;2023-06-10T04:15:19;19.60;95.50
8858;DHT22;4465;50.904;4.696;2023-06-10T04:17:45;19.60;95.50
8858;DHT22;4465;50.904;4.696;2023-06-10T04:20:11;19.60;95.70
8858;DHT22;4465;50.904;4.696;2023-06-10T04:22:37;19.60;95.80
8858;DHT22;4465;50.904;4.696;2023-06-10T04:25:03;19.60;95.80
8858;DHT22;4465;50.904;4.696;2023-06-10T04:27:31;19.60;96.10
8858;DHT22;4465;50.904;4.696;2023-06-10T04:29:57;19.60;96.20
8858;DHT22;4465;50.904;4.696;2023-06-10T04:32:25;19.60;96.50
8858;DHT22;4465;50.904;4.696;2023-06-10T04:34:52;19.60;96.50
8858;DHT22;4465;50.904;4.696;2023-06-10T04:37:18;19.60;96.50
8858;DHT22;4465;50.904;4.696;2023-06-10T04:39:44;19.60;96.30
8858;DHT22;4465;50.904;4.696;2023-06-10T04:42:09;19.60;96.50
8858;DHT22;4465;50.904;4.696;2023-06-10T04:44:35;19.60;96.10
8858;DHT22;4465;50.904;4.696;2023-06-10T04:47:01;19.60;96.50
8858;DHT22;4465;50.904;4.696;2023-06-10T04:49:27;19.70;96.40
8858;DHT22;4465;50.904;4.696;2023-06-10T04:51:55;19.70;96.70
8858;DHT22;4465;50.904;4.696;2023-06-10T04:54:21;19.70;96.60
8858;DHT22;4465;50.904;4.696;2023-06-10T04:56:47;19.80;96.90
8858;DHT22;4465;50.904;4.696;2023-06-10T04:59:12;19.80;96.70
8858;DHT22;4465;50.904;4.696;2023-06-10T05:01:40;19.90;97.20
8858;DHT22;4465;50.904;4.696;2023-06-10T05:04:08;19.90;97.10
8858;DHT22;4465;50.904;4.696;2023-06-10T05:06:34;20.00;97.30
8858;DHT22;4465;50.904;4.696;2023-06-10T05:09:02;20.10;96.50
8858;DHT22;4465;50.904;4.696;2023-06-10T05:11:28;20.10;97.20
8858;DHT22;4465;50.904;4.696;2023-06-10T05:13:54;20.20;97.70
8858;DHT22;4465;50.904;4.696;2023-06-10T05:16:22;20.20;97.70
8858;DHT22;4465;50.904;4.696;2023-06-10T05:18:50;20.30;98.00
8858;DHT22;4465;50.904;4.696;2023-06-10T05:21:19;20.40;98.10
8858;DHT22;4465;50.904;4.696;2023-06-10T05:23:48;20.40;97.60
8858;DHT22;4465;50.904;4.696;2023-06-10T05:26:14;20.50;97.70
8858;DHT22;4465;50.904;4.696;2023-06-10T05:28:43;20.60;98.00
8858;DHT22;4465;50.904;4.696;2023-06-10T05:31:11;20.60;97.90
8858;DHT22;4465;50.904;4.696;2023-06-10T05:33:37;20.70;97.30
8858;DHT22;4465;50.904;4.696;2023-06-10T05:36:03;20.70;97.20
8858;DHT22;4465;50.904;4.696;2023-06-10T05:38:29;20.80;97.20
8858;DHT22;4465;50.904;4.696;2023-06-10T05:40:55;20.80;97.20
8858;DHT22;4465;50.904;4.696;2023-06-10T05:43:22;20.90;97.20
8858;DHT22;4465;50.904;4.696;2023-06-10T05:45:50;21.00;97.40
8858;DHT22;4465;50.904;4.696;2023-06-10T05:48:16;21.00;97.20
8858;DHT22;4465;50.904;4.696;2023-06-10T05:50:42;21.10;97.10
8858;DHT22;4465;50.904;4.696;2023-06-10T05:53:14;21.20;97.30
8858;DHT22;4465;50.904;4.696;2023-06-10T05:55:44;21.30;97.60
8858;DHT22;4465;50.904;4.696;2023-06-10T05:58:11;21.40;97.50
8858;DHT22;4465;50.904;4.696;2023-06-10T06:00:43;21.50;97.40
8858;DHT22;4465;50.904;4.696;2023-06-10T06:03:09;21.60;97.10
8858;DHT22;4465;50.904;4.696;2023-06-10T06:05:36;21.70;97.10
8858;DHT22;4465;50.904;4.696;2023-06-10T06:08:09;21.80;97.10
8858;DHT22;4465;50.904;4.696;2023-06-10T06:10:39;21.90;97.30
8858;DHT22;4465;50.904;4.696;2023-06-10T06:13:07;22.00;96.80
8858;DHT22;4465;50.904;4.696;2023-06-10T06:15:33;22.10;96.90
8858;DHT22;4465;50.904;4.696;2023-06-10T06:17:59;22.20;96.90
8858;DHT22;4465;50.904;4.696;2023-06-10T06:20:25;22.20;96.80
8858;DHT22;4465;50.904;4.696;2023-06-10T06:22:50;22.30;96.80
8858;DHT22;4465;50.904;4.696;2023-06-10T06:25:16;22.40;96.80
8858;DHT22;4465;50.904;4.696;2023-06-10T06:27:42;22.50;96.70
8858;DHT22;4465;50.904;4.696;2023-06-10T06:30:08;22.60;96.60
8858;DHT22;4465;50.904;4.696;2023-06-10T06:32:35;22.70;96.50
8858;DHT22;4465;50.904;4.696;2023-06-10T06:35:03;22.80;96.60
8858;DHT22;4465;50.904;4.696;2023-06-10T06:37:31;22.90;96.70
8858;DHT22;4465;50.904;4.696;2023-06-10T06:39:58;23.00;96.60
8858;DHT22;4465;50.904;4.696;2023-06-10T06:42:24;23.20;96.50
8858;DHT22;4465;50.904;4.696;2023-06-10T06:44:49;23.30;96.50
8858;DHT22;4465;50.904;4.696;2023-06-10T06:47:15;23.40;96.60
8858;DHT22;4465;50.904;4.696;2023-06-10T06:49:48;23.60;96.40
8858;DHT22;4465;50.904;4.696;2023-06-10T06:52:15;23.60;95.90
8858;DHT22;4465;50.904;4.696;2023-06-10T06:54:41;23.70;95.80
8858;DHT22;4465;50.904;4.696;2023-06-10T06:57:07;23.80;95.90
8858;DHT22;4465;50.904;4.696;2023-06-10T06:59:33;23.90;96.00
8858;DHT22;4465;50.904;4.696;2023-06-10T07:02:03;24.10;96.00
8858;DHT22;4465;50.904;4.696;2023-06-10T07:04:34;24.20;96.00
8858;DHT22;4465;50.904;4.696;2023-06-10T07:07:00;24.30;96.00
8858;DHT22;4465;50.904;4.696;2023-06-10T07:09:25;24.50;95.90
8858;DHT22;4465;50.904;4.696;2023-06-10T07:11:51;24.70;95.80
8858;DHT22;4465;50.904;4.696;2023-06-10T07:14:17;24.80;95.60
8858;DHT22;4465;50.904;4.696;2023-06-10T07:16:46;24.90;95.30
8858;DHT22;4465;50.904;4.696;2023-06-10T07:19:14;25.00;95.40
8858;DHT22;4465;50.904;4.696;2023-06-10T07:21:42;25.10;95.20
8858;DHT22;4465;50.904;4.696;2023-06-10T07:24:07;25.20;95.00
8858;DHT22;4465;50.904;4.696;2023-06-10T07:26:33;25.30;95.00
8858;DHT22;4465;50.904;4.696;2023-06-10T07:29:01;25.40;94.80
8858;DHT22;4465;50.904;4.696;2023-06-10T07:31:27;25.50;94.90
8858;DHT22;4465;50.904;4.696;2023-06-10T07:33:53;25.60;94.40
8858;DHT22;4465;50.904;4.696;2023-06-10T07:36:19;25.70;94.60
8858;DHT22;4465;50.904;4.696;2023-06-10T07:38:48;25.80;94.30
8858;DHT22;4465;50.904;4.696;2023-06-10T07:41:13;25.90;94.30
8858;DHT22;4465;50.904;4.696;2023-06-10T07:43:39;26.00;94.60
8858;DHT22;4465;50.904;4.696;2023-06-10T07:46:05;26.10;93.70
8858;DHT22;4465;50.904;4.696;2023-06-10T07:48:31;26.20;93.60
8858;DHT22;4465;50.904;4.696;2023-06-10T07:50:57;26.30;93.70
8858;DHT22;4465;50.904;4.696;2023-06-10T07:53:26;26.40;93.60
8858;DHT22;4465;50.904;4.696;2023-06-10T07:55:51;26.50;93.90
8858;DHT22;4465;50.904;4.696;2023-06-10T07:58:17;26.60;93.80
8858;DHT22;4465;50.904;4.696;2023-06-10T08:00:43;26.70;93.50
8858;DHT22;4465;50.904;4.696;2023-06-10T08:03:15;26.80;93.30
8858;DHT22;4465;50.904;4.696;2023-06-10T08:05:40;26.90;93.30
8858;DHT22;4465;50.904;4.696;2023-06-10T08:08:09;26.90;92.10
8858;DHT22;4465;50.904;4.696;2023-06-10T08:10:38;27.00;93.00
8858;DHT22;4465;50.904;4.696;2023-06-10T08:13:04;27.20;93.40
8858;DHT22;4465;50.904;4.696;2023-06-10T08:15:32;27.30;93.30
8858;DHT22;4465;50.904;4.696;2023-06-10T08:17:58;27.40;92.10
8858;DHT22;4465;50.904;4.696;2023-06-10T08:20:24;27.50;92.30
8858;DHT22;4465;50.904;4.696;2023-06-10T08:22:50;27.70;91.70
8858;DHT22;4465;50.904;4.696;2023-06-10T08:25:16;27.80;91.70
8858;DHT22;4465;50.904;4.696;2023-06-10T08:27:42;28.00;90.40
8858;DHT22;4465;50.904;4.696;2023-06-10T08:30:08;28.10;90.60
8858;DHT22;4465;50.904;4.696;2023-06-10T08:32:38;28.20;90.30
8858;DHT22;4465;50.904;4.696;2023-06-10T08:35:04;28.40;90.70
8858;DHT22;4465;50.904;4.696;2023-06-10T08:37:31;28.60;90.70
8858;DHT22;4465;50.904;4.696;2023-06-10T08:39:56;28.80;89.60
8858;DHT22;4465;50.904;4.696;2023-06-10T08:42:28;28.90;88.00
8858;DHT22;4465;50.904;4.696;2023-06-10T08:45:01;28.90;86.30
8858;DHT22;4465;50.904;4.696;2023-06-10T08:47:33;29.10;87.80
8858;DHT22;4465;50.904;4.696;2023-06-10T08:50:05;29.20;87.50
8858;DHT22;4465;50.904;4.696;2023-06-10T08:52:40;29.10;83.10
8858;DHT22;4465;50.904;4.696;2023-06-10T08:55:15;29.20;86.00
8858;DHT22;4465;50.904;4.696;2023-06-10T08:57:43;29.20;86.00
8858;DHT22;4465;50.904;4.696;2023-06-10T09:00:12;29.20;85.80
8858;DHT22;4465;50.904;4.696;2023-06-10T09:02:39;29.20;86.90
8858;DHT22;4465;50.904;4.696;2023-06-10T09:05:05;29.20;86.70
8858;DHT22;4465;50.904;4.696;2023-06-10T09:07:31;29.20;87.30
8858;DHT22;4465;50.904;4.696;2023-06-10T09:09:58;29.20;84.20
8858;DHT22;4465;50.904;4.696;2023-06-10T09:12:24;29.20;84.40
8858;DHT22;4465;50.904;4.696;2023-06-10T09:14:53;29.20;84.50
8858;DHT22;4465;50.904;4.696;2023-06-10T09:17:19;29.20;84.70
8858;DHT22;4465;50.904;4.696;2023-06-10T09:19:47;29.20;85.60
8858;DHT22;4465;50.904;4.696;2023-06-10T09:22:14;29.20;85.60
8858;DHT22;4465;50.904;4.696;2023-06-10T09:24:42;29.30;84.90
8858;DHT22;4465;50.904;4.696;2023-06-10T09:27:09;29.40;85.50
8858;DHT22;4465;50.904;4.696;2023-06-10T09:29:54;29.40;84.80
8858;DHT22;4465;50.904;4.696;2023-06-10T09:32:21;29.40;83.90
8858;DHT22;4465;50.904;4.696;2023-06-10T09:34:47;29.50;82.40
8858;DHT22;4465;50.904;4.696;2023-06-10T09:37:21;29.60;82.50
8858;DHT22;4465;50.904;4.696;2023-06-10T09:40:08;29.60;82.60
8858;DHT22;4465;50.904;4.696;2023-06-10T09:42:37;29.60;82.80
8858;DHT22;4465;50.904;4.696;2023-06-10T09:45:04;29.60;82.30
8858;DHT22;4465;50.904;4.696;2023-06-10T09:47:36;29.60;79.80
8858;DHT22;4465;50.904;4.696;2023-06-10T09:50:04;29.70;81.50
8858;DHT22;4465;50.904;4.696;2023-06-10T09:52:30;29.50;80.60
8858;DHT22;4465;50.904;4.696;2023-06-10T09:55:01;29.40;80.40
8858;DHT22;4465;50.904;4.696;2023-06-10T09:57:31;29.30;80.90
8858;DHT22;4465;50.904;4.696;2023-06-10T10:00:06;29.20;81.10
8858;DHT22;4465;50.904;4.696;2023-06-10T10:02:53;29.20;81.10
8858;DHT22;4465;50.904;4.696;2023-06-10T10:05:21;29.10;80.00
8858;DHT22;4465;50.904;4.696;2023-06-10T10:07:47;29.00;80.50
8858;DHT22;4465;50.904;4.696;2023-06-10T10:10:14;29.10;81.50
8858;DHT22;4465;50.904;4.696;2023-06-10T10:12:41;29.00;80.80
8858;DHT22;4465;50.904;4.696;2023-06-10T10:15:09;29.00;80.10
8858;DHT22;4465;50.904;4.696;2023-06-10T10:17:49;29.00;79.50
8858;DHT22;4465;50.904;4.696;2023-06-10T10:20:22;29.00;79.30
8858;DHT22;4465;50.904;4.696;2023-06-10T10:22:52;28.90;77.80
8858;DHT22;4465;50.904;4.696;2023-06-10T10:25:40;28.90;77.40
8858;DHT22;4465;50.904;4.696;2023-06-10T10:28:12;29.00;78.90
8858;DHT22;4465;50.904;4.696;2023-06-10T10:30:45;28.90;78.00
8858;DHT22;4465;50.904;4.696;2023-06-10T10:33:12;28.90;77.80
8858;DHT22;4465;50.904;4.696;2023-06-10T10:35:39;28.90;78.40
8858;DHT22;4465;50.904;4.696;2023-06-10T10:38:06;28.90;77.20
8858;DHT22;4465;50.904;4.696;2023-06-10T10:40:33;29.00;76.30
8858;DHT22;4465;50.904;4.696;2023-06-10T10:43:02;29.00;77.40
8858;DHT22;4465;50.904;4.696;2023-06-10T10:45:35;29.10;78.70
8858;DHT22;4465;50.904;4.696;2023-06-10T10:48:12;29.10;77.40
8858;DHT22;4465;50.904;4.696;2023-06-10T10:50:38;29.20;78.60
8858;DHT22;4465;50.904;4.696;2023-06-10T10:53:06;29.30;75.50
8858;DHT22;4465;50.904;4.696;2023-06-10T10:55:32;29.40;75.80
8858;DHT22;4465;50.904;4.696;2023-06-10T10:58:06;29.50;77.60
8858;DHT22;4465;50.904;4.696;2023-06-10T11:00:46;29.60;77.50
8858;DHT22;4465;50.904;4.696;2023-06-10T11:03:15;29.80;78.80
8858;DHT22;4465;50.904;4.696;2023-06-10T11:05:44;30.00;78.30
8858;DHT22;4465;50.904;4.696;2023-06-10T11:08:14;30.20;77.30
8858;DHT22;4465;50.904;4.696;2023-06-10T11:10:41;30.50;76.20
8858;DHT22;4465;50.904;4.696;2023-06-10T11:13:18;30.90;77.60
8858;DHT22;4465;50.904;4.696;2023-06-10T11:15:49;31.30;76.50
8858;DHT22;4465;50.904;4.696;2023-06-10T11:18:29;31.80;74.50
8858;DHT22;4465;50.904;4.696;2023-06-10T11:31:29;33.90;71.50
8858;DHT22;4465;50.904;4.696;2023-06-10T11:34:02;34.30;72.20
8858;DHT22;4465;50.904;4.696;2023-06-10T11:36:30;34.80;70.20
8858;DHT22;4465;50.904;4.696;2023-06-10T11:39:01;35.20;66.40
8858;DHT22;4465;50.904;4.696;2023-06-10T11:41:29;35.50;67.00
8858;DHT22;4465;50.904;4.696;2023-06-10T11:44:18;35.90;67.50
8858;DHT22;4465;50.904;4.696;2023-06-10T11:46:44;36.20;63.70
8858;DHT22;4465;50.904;4.696;2023-06-10T11:49:11;36.20;59.20
8858;DHT22;4465;50.904;4.696;2023-06-10T11:51:40;36.40;61.80
8858;DHT22;4465;50.904;4.696;2023-06-10T11:54:09;36.50;61.50
8858;DHT22;4465;50.904;4.696;2023-06-10T11:56:38;36.60;58.10
8858;DHT22;4465;50.904;4.696;2023-06-10T11:59:07;36.80;59.50
8858;DHT22;4465;50.904;4.696;2023-06-10T12:01:37;36.90;59.90
8858;DHT22;4465;50.904;4.696;2023-06-10T12:04:10;37.20;61.20
8858;DHT22;4465;50.904;4.696;2023-06-10T12:09:06;37.60;59.50
8858;DHT22;4465;50.904;4.696;2023-06-10T12:11:33;37.80;57.70
8858;DHT22;4465;50.904;4.696;2023-06-10T12:13:59;37.60;55.60
8858;DHT22;4465;50.904;4.696;2023-06-10T12:16:25;37.70;57.10
8858;DHT22;4465;50.904;4.696;2023-06-10T12:18:51;37.80;58.00
8858;DHT22;4465;50.904;4.696;2023-06-10T12:21:26;37.90;55.70
8858;DHT22;4465;50.904;4.696;2023-06-10T12:24:06;38.20;56.60
8858;DHT22;4465;50.904;4.696;2023-06-10T12:29:24;38.30;53.10
8858;DHT22;4465;50.904;4.696;2023-06-10T12:32:01;38.10;52.80
8858;DHT22;4465;50.904;4.696;2023-06-10T12:36:59;37.60;52.60
8858;DHT22;4465;50.904;4.696;2023-06-10T12:39:26;37.70;53.30
8858;DHT22;4465;50.904;4.696;2023-06-10T12:41:52;37.50;51.70
8858;DHT22;4465;50.904;4.696;2023-06-10T12:44:18;37.60;52.50
8858;DHT22;4465;50.904;4.696;2023-06-10T12:46:44;37.70;52.90
8858;DHT22;4465;50.904;4.696;2023-06-10T12:49:20;37.60;53.10
8858;DHT22;4465;50.904;4.696;2023-06-10T12:51:47;37.60;52.70
8858;DHT22;4465;50.904;4.696;2023-06-10T12:54:15;37.60;52.10
8858;DHT22;4465;50.904;4.696;2023-06-10T12:56:41;37.70;53.60
8858;DHT22;4465;50.904;4.696;2023-06-10T12:59:07;37.70;50.70
8858;DHT22;4465;50.904;4.696;2023-06-10T13:01:33;37.60;52.60
8858;DHT22;4465;50.904;4.696;2023-06-10T13:03:59;37.50;52.00
8858;DHT22;4465;50.904;4.696;2023-06-10T13:06:25;37.50;53.10
8858;DHT22;4465;50.904;4.696;2023-06-10T13:08:51;37.40;52.40
8858;DHT22;4465;50.904;4.696;2023-06-10T13:11:20;37.30;51.20
8858;DHT22;4465;50.904;4.696;2023-06-10T13:13:46;37.00;51.50
8858;DHT22;4465;50.904;4.696;2023-06-10T13:16:12;36.70;50.50
8858;DHT22;4465;50.904;4.696;2023-06-10T13:18:43;36.40;51.20
8858;DHT22;4465;50.904;4.696;2023-06-10T13:21:09;36.20;51.80
8858;DHT22;4465;50.904;4.696;2023-06-10T13:23:34;35.90;51.90
8858;DHT22;4465;50.904;4.696;2023-06-10T13:26:01;35.60;51.80
8858;DHT22;4465;50.904;4.696;2023-06-10T13:28:28;35.40;52.40
8858;DHT22;4465;50.904;4.696;2023-06-10T13:30:54;35.10;52.50
8858;DHT22;4465;50.904;4.696;2023-06-10T13:33:20;34.90;53.70
8858;DHT22;4465;50.904;4.696;2023-06-10T13:35:48;34.80;53.60
8858;DHT22;4465;50.904;4.696;2023-06-10T13:38:14;34.60;53.20
8858;DHT22;4465;50.904;4.696;2023-06-10T13:40:40;34.30;53.70
8858;DHT22;4465;50.904;4.696;2023-06-10T13:43:06;34.10;53.20
8858;DHT22;4465;50.904;4.696;2023-06-10T13:45:32;33.90;53.70
8858;DHT22;4465;50.904;4.696;2023-06-10T13:47:58;33.60;52.70
8858;DHT22;4465;50.904;4.696;2023-06-10T13:50:24;33.30;53.50
8858;DHT22;4465;50.904;4.696;2023-06-10T13:52:50;33.20;55.00
8858;DHT22;4465;50.904;4.696;2023-06-10T13:55:19;33.20;55.80
8858;DHT22;4465;50.904;4.696;2023-06-10T13:57:45;33.10;54.70
8858;DHT22;4465;50.904;4.696;2023-06-10T14:00:14;33.00;54.50
8858;DHT22;4465;50.904;4.696;2023-06-10T14:02:45;32.80;54.70
8858;DHT22;4465;50.904;4.696;2023-06-10T14:05:15;32.70;55.00
8858;DHT22;4465;50.904;4.696;2023-06-10T14:07:41;32.60;55.90
8858;DHT22;4465;50.904;4.696;2023-06-10T14:10:09;32.50;55.00
8858;DHT22;4465;50.904;4.696;2023-06-10T14:12:37;32.40;55.50
8858;DHT22;4465;50.904;4.696;2023-06-10T14:15:04;32.30;55.80
8858;DHT22;4465;50.904;4.696;2023-06-10T14:17:32;32.20;55.40
8858;DHT22;4465;50.904;4.696;2023-06-10T14:19:58;32.10;56.90
8858;DHT22;4465;50.904;4.696;2023-06-10T14:22:24;32.10;56.70
8858;DHT22;4465;50.904;4.696;2023-06-10T14:24:49;32.00;56.00
8858;DHT22;4465;50.904;4.696;2023-06-10T14:27:17;31.90;56.30
8858;DHT22;4465;50.904;4.696;2023-06-10T14:29:46;31.90;56.80
8858;DHT22;4465;50.904;4.696;2023-06-10T14:32:12;31.80;56.10
8858;DHT22;4465;50.904;4.696;2023-06-10T14:34:38;31.70;56.70
8858;DHT22;4465;50.904;4.696;2023-06-10T14:37:10;31.60;55.90
8858;DHT22;4465;50.904;4.696;2023-06-10T14:39:41;31.50;56.20
8858;DHT22;4465;50.904;4.696;2023-06-10T14:42:07;31.40;56.40
8858;DHT22;4465;50.904;4.696;2023-06-10T14:44:33;31.40;57.00
8858;DHT22;4465;50.904;4.696;2023-06-10T14:46:58;31.40;56.40
8858;DHT22;4465;50.904;4.696;2023-06-10T14:49:24;31.30;56.40
8858;DHT22;4465;50.904;4.696;2023-06-10T14:51:53;31.20;56.00
8858;DHT22;4465;50.904;4.696;2023-06-10T14:54:18;31.10;56.90
8858;DHT22;4465;50.904;4.696;2023-06-10T14:56:45;31.10;56.80
8858;DHT22;4465;50.904;4.696;2023-06-10T14:59:10;31.00;57.00
8858;DHT22;4465;50.904;4.696;2023-06-10T15:01:36;31.10;57.50
8858;DHT22;4465;50.904;4.696;2023-06-10T15:04:02;31.00;57.70
8858;DHT22;4465;50.904;4.696;2023-06-10T15:06:28;31.00;56.60
8858;DHT22;4465;50.904;4.696;2023-06-10T15:08:56;31.00;56.50
8858;DHT22;4465;50.904;4.696;2023-06-10T15:11:24;30.90;56.50
8858;DHT22;4465;50.904;4.696;2023-06-10T15:13:50;30.80;56.80
8858;DHT22;4465;50.904;4.696;2023-06-10T15:16:16;30.80;57.40
8858;DHT22;4465;50.904;4.696;2023-06-10T15:18:42;30.80;58.00
8858;DHT22;4465;50.904;4.696;2023-06-10T15:21:07;30.80;57.90
8858;DHT22;4465;50.904;4.696;2023-06-10T15:23:33;30.80;57.90
8858;DHT22;4465;50.904;4.696;2023-06-10T15:25:59;30.70;58.10
8858;DHT22;4465;50.904;4.696;2023-06-10T15:28:25;30.70;57.90
8858;DHT22;4465;50.904;4.696;2023-06-10T15:30:53;30.70;58.40
8858;DHT22;4465;50.904;4.696;2023-06-10T15:33:19;30.70;58.60
8858;DHT22;4465;50.904;4.696;2023-06-10T15:35:47;30.70;58.50
8858;DHT22;4465;50.904;4.696;2023-06-10T15:38:13;30.70;58.80
8858;DHT22;4465;50.904;4.696;2023-06-10T15:40:42;30.60;58.00
8858;DHT22;4465;50.904;4.696;2023-06-10T15:43:08;30.60;58.20
8858;DHT22;4465;50.904;4.696;2023-06-10T15:45:34;30.50;58.00
8858;DHT22;4465;50.904;4.696;2023-06-10T15:48:00;30.50;58.50
8858;DHT22;4465;50.904;4.696;2023-06-10T15:50:26;30.50;58.30
8858;DHT22;4465;50.904;4.696;2023-06-10T15:52:52;30.40;58.50
8858;DHT22;4465;50.904;4.696;2023-06-10T15:55:18;30.40;57.90
8858;DHT22;4465;50.904;4.696;2023-06-10T15:57:47;30.30;58.20
8858;DHT22;4465;50.904;4.696;2023-06-10T16:00:15;30.30;57.90
8858;DHT22;4465;50.904;4.696;2023-06-10T16:02:44;30.20;57.90
8858;DHT22;4465;50.904;4.696;2023-06-10T16:05:10;30.20;58.70
8858;DHT22;4465;50.904;4.696;2023-06-10T16:07:35;30.20;58.80
8858;DHT22;4465;50.904;4.696;2023-06-10T16:10:01;30.20;58.90
8858;DHT22;4465;50.904;4.696;2023-06-10T16:12:29;30.20;58.60
8858;DHT22;4465;50.904;4.696;2023-06-10T16:15:00;30.10;58.70
8858;DHT22;4465;50.904;4.696;2023-06-10T16:17:26;30.10;58.70
8858;DHT22;4465;50.904;4.696;2023-06-10T16:19:52;30.10;58.60
8858;DHT22;4465;50.904;4.696;2023-06-10T16:22:18;30.10;59.10
8858;DHT22;4465;50.904;4.696;2023-06-10T16:24:43;30.10;59.30
8858;DHT22;4465;50.904;4.696;2023-06-10T16:27:09;30.10;59.40
8858;DHT22;4465;50.904;4.696;2023-06-10T16:29:38;30.00;58.50
8858;DHT22;4465;50.904;4.696;2023-06-10T16:32:04;30.00;58.60